Time;durP1;ratioP1;P1;durP2;ratioP2;P2;SDS_P1;SDS_P2;PMS_P1;PMS_P2;Temp;Humidity;BMP_temperature;BMP_pressure;BME280_temperature;BME280_humidity;BME280_pressure;Samples;Min_cycle;Max_cycle;Signal;HPM_P1;HPM_P2
2022/01/26 00:06:39;;;;;;;36.93;17.00;;;4.00;99.90;;;;;;5032173;28;20174;-78
2022/01/26 00:09:06;;;;;;;33.33;16.57;;;4.00;99.90;;;;;;5016566;28;20559;-77
2022/01/26 00:11:35;;;;;;;34.00;17.33;;;4.00;99.90;;;;;;5031976;28;20201;-77
2022/01/26 00:14:03;;;;;;;34.57;17.37;;;3.70;99.90;;;;;;4999036;28;20181;-77
2022/01/26 00:16:39;;;;;;;32.00;16.90;;;3.20;99.90;;;;;;5015987;28;20202;-84
2022/01/26 00:19:07;;;;;;;36.57;16.87;;;3.20;99.90;;;;;;5033324;28;20176;-76
2022/01/26 00:21:38;;;;;;;33.97;16.33;;;3.50;99.90;;;;;;5033168;28;20250;-81
2022/01/26 00:26:47;;;;;;;32.37;15.90;;;3.50;99.90;;;;;;5032084;28;20181;-76
2022/01/26 00:29:16;;;;;;;33.07;16.77;;;3.90;99.90;;;;;;5034737;28;20169;-82
2022/01/26 00:33:06;;;;;;;36.37;17.37;;;3.90;99.90;;;;;;5015480;28;20268;-77
2022/01/26 00:40:37;;;;;;;33.93;16.53;;;3.90;99.90;;;;;;5018907;28;20205;-82
2022/01/26 00:43:20;;;;;;;37.07;18.33;;;4.00;99.90;;;;;;5000584;28;20174;-77
2022/01/26 00:45:49;;;;;;;37.57;17.63;;;3.90;99.90;;;;;;5000731;28;20653;-81
2022/01/26 00:48:19;;;;;;;38.27;19.10;;;4.10;99.90;;;;;;5014681;28;20170;-76
2022/01/26 00:50:50;;;;;;;38.13;17.80;;;3.90;99.90;;;;;;4999621;28;20285;-81
2022/01/26 00:53:17;;;;;;;36.20;17.00;;;3.90;99.90;;;;;;5014183;28;20200;-75
2022/01/26 00:55:43;;;;;;;37.63;17.87;;;3.90;99.90;;;;;;5030094;28;20181;-75
2022/01/26 00:58:09;;;;;;;37.27;18.80;;;4.00;99.90;;;;;;4998553;28;20273;-76
2022/01/26 01:00:35;;;;;;;41.00;19.20;;;3.30;99.90;;;;;;4981730;28;20205;-76
2022/01/26 01:03:01;;;;;;;40.53;20.13;;;3.40;99.90;;;;;;5015060;28;20922;-83
2022/01/26 01:05:35;;;;;;;40.57;19.43;;;3.60;99.90;;;;;;5025011;28;20290;-82
2022/01/26 01:08:07;;;;;;;37.43;18.53;;;3.70;99.90;;;;;;5018986;28;20189;-82
2022/01/26 01:10:33;;;;;;;42.80;18.23;;;3.70;99.90;;;;;;5031701;28;20234;-79
2022/01/26 01:13:00;;;;;;;43.37;19.07;;;3.80;99.90;;;;;;5014442;28;20178;-78
2022/01/26 01:15:28;;;;;;;38.77;18.43;;;3.80;99.90;;;;;;5013987;28;20198;-82
2022/01/26 01:18:07;;;;;;;37.43;17.33;;;3.70;99.90;;;;;;5014710;28;20189;-78
2022/01/26 01:34:04;;;;;;;33.23;16.57;;;3.80;99.90;;;;;;5030476;28;20228;-76
2022/01/26 01:36:30;;;;;;;35.60;16.33;;;3.90;99.90;;;;;;4997943;28;20556;-76
2022/01/26 01:38:57;;;;;;;36.17;16.67;;;3.90;99.90;;;;;;5014592;28;20177;-83
2022/01/26 01:41:23;;;;;;;33.20;16.70;;;3.90;99.90;;;;;;5030388;28;20216;-82
2022/01/26 01:43:48;;;;;;;35.20;17.10;;;3.80;99.90;;;;;;5030376;28;20170;-76
2022/01/26 01:46:14;;;;;;;38.23;16.67;;;3.80;99.90;;;;;;4981256;28;20212;-77
2022/01/26 01:48:40;;;;;;;32.57;16.20;;;3.70;99.90;;;;;;5014349;28;20173;-83
2022/01/26 01:51:10;;;;;;;34.27;15.33;;;3.80;99.90;;;;;;4998084;28;20811;-82
2022/01/26 01:53:40;;;;;;;27.97;15.37;;;3.80;99.90;;;;;;5013825;28;20641;-84
2022/01/26 01:56:09;;;;;;;32.50;16.13;;;3.80;99.90;;;;;;5030336;28;20663;-76
2022/01/26 01:58:35;;;;;;;32.43;15.67;;;3.90;99.90;;;;;;5030061;28;20272;-76
2022/01/26 02:01:01;;;;;;;32.97;15.43;;;3.90;99.90;;;;;;5014264;28;20205;-78
2022/01/26 02:03:27;;;;;;;34.47;15.77;;;3.80;99.90;;;;;;5029705;28;20174;-82
2022/01/26 02:05:52;;;;;;;34.30;16.10;;;3.70;99.90;;;;;;4997036;28;20174;-74
2022/01/26 02:08:18;;;;;;;28.80;14.73;;;3.60;99.90;;;;;;4996791;28;20677;-76
2022/01/26 02:10:45;;;;;;;28.90;14.33;;;3.50;99.90;;;;;;5029965;28;20237;-76
2022/01/26 02:13:21;;;;;;;33.73;15.13;;;3.50;99.90;;;;;;5013872;28;20182;-75
2022/01/26 02:16:09;;;;;;;33.43;14.37;;;3.40;99.90;;;;;;5029711;28;20692;-74
2022/01/26 02:21:28;;;;;;;29.73;14.07;;;3.50;99.90;;;;;;5029948;28;20238;-77
2022/01/26 02:56:43;;;;;;;21.63;11.10;;;3.20;99.90;;;;;;4993524;28;20183;-83
2022/01/26 03:00:01;;;;;;;18.00;10.27;;;3.10;99.90;;;;;;5008929;28;20182;-83
2022/01/26 03:07:39;;;;;;;21.40;11.33;;;3.30;99.90;;;;;;4994684;28;20174;-77
2022/01/26 03:10:44;;;;;;;19.93;11.23;;;3.20;99.90;;;;;;5012927;28;20179;-84
2022/01/26 03:12:50;;;;;;;23.57;11.17;;;3.20;99.90;;;;;;5015472;28;20193;-77
2022/01/26 03:15:24;;;;;;;20.60;10.93;;;3.20;99.90;;;;;;5029919;28;20986;-82
2022/01/26 03:20:38;;;;;;;18.93;10.37;;;3.30;99.90;;;;;;5005347;28;20217;-77
2022/01/26 03:29:39;;;;;;;17.77;9.70;;;3.40;99.90;;;;;;5031007;28;20253;-77
2022/01/26 03:34:11;;;;;;;19.07;9.53;;;3.30;99.90;;;;;;5029837;28;20170;-77
2022/01/26 03:39:42;;;;;;;19.97;10.13;;;3.30;99.90;;;;;;5034328;28;20193;-81
2022/01/26 03:42:13;;;;;;;18.17;10.00;;;3.40;99.90;;;;;;5007072;28;20226;-77
2022/01/26 03:44:40;;;;;;;24.33;10.97;;;3.30;99.90;;;;;;5032006;28;20685;-82
2022/01/26 03:47:06;;;;;;;18.70;9.97;;;3.30;99.90;;;;;;5016028;28;20178;-82
2022/01/26 03:49:34;;;;;;;22.97;11.40;;;3.30;99.90;;;;;;5049443;28;20812;-83
2022/01/26 03:52:00;;;;;;;20.47;10.37;;;3.50;99.90;;;;;;5032946;28;20533;-83
2022/01/26 03:54:25;;;;;;;20.17;10.37;;;3.30;99.90;;;;;;5033921;28;20192;-77
2022/01/26 03:56:51;;;;;;;25.00;11.57;;;3.20;99.90;;;;;;4998874;28;20818;-77
2022/01/26 03:59:17;;;;;;;20.77;11.40;;;3.20;99.90;;;;;;5017107;28;20186;-82
2022/01/26 04:01:43;;;;;;;22.43;10.70;;;3.40;99.90;;;;;;5015992;28;20202;-81
2022/01/26 04:04:34;;;;;;;21.57;10.87;;;3.20;99.90;;;;;;5031963;28;20174;-77
2022/01/26 04:07:01;;;;;;;23.03;10.60;;;3.30;99.90;;;;;;5016087;28;20644;-76
2022/01/26 04:09:27;;;;;;;22.57;11.10;;;3.30;99.90;;;;;;5033681;28;20198;-76
2022/01/26 04:11:52;;;;;;;23.17;10.40;;;3.20;99.90;;;;;;5015608;28;20688;-77
2022/01/26 04:14:23;;;;;;;21.47;10.50;;;3.30;99.90;;;;;;5015430;28;20261;-84
2022/01/26 04:16:49;;;;;;;24.37;11.50;;;3.30;99.90;;;;;;5031561;28;20252;-77
2022/01/26 04:19:16;;;;;;;23.50;12.27;;;3.30;99.90;;;;;;5031980;28;20170;-77
2022/01/26 04:29:17;;;;;;;23.53;11.93;;;3.20;99.90;;;;;;5016815;28;20555;-83
2022/01/26 04:31:43;;;;;;;28.50;12.17;;;3.20;99.90;;;;;;5031993;28;20174;-82
2022/01/26 04:34:08;;;;;;;22.13;11.20;;;3.30;99.90;;;;;;5016096;28;20178;-82
2022/01/26 04:36:41;;;;;;;25.07;11.97;;;3.30;99.90;;;;;;5032679;28;20257;-81
2022/01/26 04:39:12;;;;;;;23.50;11.80;;;3.30;99.90;;;;;;5002092;28;20178;-77
2022/01/26 04:42:14;;;;;;;24.30;11.10;;;3.30;99.90;;;;;;5031669;28;20201;-83
2022/01/26 04:44:46;;;;;;;27.90;12.23;;;3.30;99.90;;;;;;5032860;28;20216;-82
2022/01/26 04:47:12;;;;;;;25.20;10.80;;;3.20;99.90;;;;;;5031471;28;20200;-81
2022/01/26 04:49:38;;;;;;;25.03;12.00;;;3.20;99.90;;;;;;5015354;28;20177;-76
2022/01/26 04:52:04;;;;;;;23.43;12.13;;;3.20;99.90;;;;;;5009638;28;20195;-80
2022/01/26 04:54:30;;;;;;;26.83;12.83;;;3.20;99.90;;;;;;5011125;28;20185;-82
2022/01/26 04:56:56;;;;;;;26.17;11.80;;;3.20;99.90;;;;;;5012814;28;20178;-76
2022/01/26 04:59:23;;;;;;;28.70;12.80;;;3.20;99.90;;;;;;4994444;28;20201;-80
2022/01/26 05:01:49;;;;;;;23.50;12.43;;;3.20;99.90;;;;;;5010611;28;20292;-82
2022/01/26 05:04:14;;;;;;;30.83;12.30;;;3.30;99.90;;;;;;5018132;28;20233;-76
2022/01/26 05:06:40;;;;;;;27.40;12.27;;;3.30;99.90;;;;;;4997993;28;20652;-80
2022/01/26 05:09:06;;;;;;;30.80;13.20;;;3.30;99.90;;;;;;5031691;28;20178;-76
2022/01/26 05:11:38;;;;;;;24.27;11.63;;;3.30;99.90;;;;;;5034333;28;20189;-77
2022/01/26 05:14:04;;;;;;;28.47;11.80;;;3.30;99.90;;;;;;5015674;28;20555;-82
2022/01/26 05:16:30;;;;;;;28.63;13.20;;;3.30;99.90;;;;;;5014273;28;20622;-77
2022/01/26 05:18:57;;;;;;;23.93;11.20;;;3.20;99.90;;;;;;4981755;28;20186;-81
2022/01/26 05:21:24;;;;;;;24.23;12.73;;;3.20;99.90;;;;;;5013839;28;20602;-82
2022/01/26 05:23:51;;;;;;;23.30;11.53;;;3.30;99.90;;;;;;5030550;28;20656;-81
2022/01/26 05:26:17;;;;;;;26.73;12.43;;;3.30;99.90;;;;;;5030880;28;20174;-76
2022/01/26 05:28:43;;;;;;;25.10;12.03;;;3.40;99.90;;;;;;5030785;28;20166;-77
2022/01/26 05:31:10;;;;;;;28.77;12.73;;;3.20;99.90;;;;;;5014439;28;20177;-76
2022/01/26 05:33:39;;;;;;;27.30;12.00;;;3.10;99.90;;;;;;5014631;28;21017;-76
2022/01/26 05:36:05;;;;;;;21.00;11.33;;;3.20;99.90;;;;;;5014184;28;20529;-76
2022/01/26 05:38:31;;;;;;;22.40;11.63;;;3.30;99.90;;;;;;4998190;28;20176;-82
2022/01/26 05:41:00;;;;;;;22.17;11.83;;;3.30;99.90;;;;;;5013893;28;20308;-76
2022/01/26 05:43:27;;;;;;;28.50;12.03;;;3.30;99.90;;;;;;5015880;28;20170;-82
2022/01/26 05:45:56;;;;;;;27.10;12.13;;;3.20;99.90;;;;;;4997258;28;20256;-76
2022/01/26 05:48:23;;;;;;;28.17;12.63;;;3.30;99.90;;;;;;5030639;28;20180;-83
2022/01/26 05:50:52;;;;;;;27.10;12.27;;;3.30;99.90;;;;;;5014360;28;20174;-77
2022/01/26 05:53:21;;;;;;;25.27;12.67;;;3.50;99.90;;;;;;5014100;28;20193;-82
2022/01/26 05:55:53;;;;;;;24.40;11.50;;;3.50;99.90;;;;;;5030030;28;20182;-76
2022/01/26 05:58:19;;;;;;;27.17;12.80;;;3.60;99.90;;;;;;4997102;28;20193;-77
2022/01/26 06:00:44;;;;;;;23.30;12.30;;;3.50;99.90;;;;;;5029486;28;20213;-83
2022/01/26 06:03:11;;;;;;;23.93;12.03;;;3.50;99.90;;;;;;5031384;28;20170;-78
2022/01/26 06:05:37;;;;;;;24.83;11.37;;;3.40;99.90;;;;;;4997359;28;20174;-78
2022/01/26 06:08:03;;;;;;;25.73;11.70;;;3.20;99.90;;;;;;5031593;28;20162;-78
2022/01/26 06:10:29;;;;;;;23.43;12.40;;;3.30;99.90;;;;;;5030037;28;20182;-83
2022/01/26 06:12:55;;;;;;;25.87;13.07;;;3.30;99.90;;;;;;5034057;28;20176;-83
2022/01/26 06:15:21;;;;;;;28.13;12.40;;;3.20;99.90;;;;;;5013441;28;20213;-77
2022/01/26 06:17:47;;;;;;;28.13;12.63;;;3.20;99.90;;;;;;4997276;28;20252;-82
2022/01/26 06:20:13;;;;;;;26.10;12.70;;;3.00;99.90;;;;;;5014195;28;20185;-83
2022/01/26 06:22:45;;;;;;;25.13;12.80;;;3.00;99.90;;;;;;5013960;28;20616;-77
2022/01/26 06:25:15;;;;;;;26.77;12.33;;;3.20;99.90;;;;;;5013791;28;20603;-78
2022/01/26 06:27:44;;;;;;;22.00;11.57;;;3.30;99.90;;;;;;5030344;28;20182;-80
2022/01/26 06:30:11;;;;;;;27.40;13.47;;;3.30;99.90;;;;;;5030960;28;20174;-82
2022/01/26 06:32:38;;;;;;;28.20;12.60;;;3.30;99.90;;;;;;5023155;28;20530;-78
2022/01/26 06:35:06;;;;;;;24.57;12.00;;;3.40;99.90;;;;;;5012631;28;20178;-81
2022/01/26 06:37:32;;;;;;;25.73;12.23;;;3.40;99.90;;;;;;5027736;28;20174;-78
2022/01/26 06:39:58;;;;;;;25.17;11.77;;;3.40;99.90;;;;;;5012888;28;20204;-82
2022/01/26 06:42:28;;;;;;;26.53;13.50;;;3.40;99.90;;;;;;4993032;28;20570;-84
2022/01/26 06:49:46;;;;;;;25.53;11.63;;;3.20;99.90;;;;;;5003229;28;20617;-80
2022/01/26 06:52:12;;;;;;;27.67;12.30;;;3.30;99.90;;;;;;5010105;28;20249;-81
2022/01/26 06:54:38;;;;;;;22.07;11.43;;;3.30;99.90;;;;;;5027862;28;20272;-84
2022/01/26 06:57:04;;;;;;;24.20;11.97;;;3.20;99.90;;;;;;5012625;28;20567;-82
2022/01/26 06:59:30;;;;;;;25.53;12.60;;;3.20;99.90;;;;;;4987361;28;20256;-77
2022/01/26 07:01:55;;;;;;;24.80;12.23;;;3.00;99.90;;;;;;4994685;28;20779;-83
2022/01/26 07:04:21;;;;;;;23.07;11.07;;;3.10;99.90;;;;;;5027798;28;20629;-78
2022/01/26 07:06:47;;;;;;;24.73;11.77;;;3.20;99.90;;;;;;5024102;28;20182;-80
2022/01/26 07:09:13;;;;;;;25.47;12.70;;;3.30;99.90;;;;;;4995190;28;20273;-83
2022/01/26 07:11:39;;;;;;;25.00;11.03;;;3.40;99.90;;;;;;4980850;28;20206;-83
2022/01/26 07:14:08;;;;;;;22.87;12.17;;;3.30;99.90;;;;;;5009676;28;20679;-77
2022/01/26 07:22:10;;;;;;;22.00;10.70;;;3.20;99.90;;;;;;5038705;28;20210;-77
2022/01/26 07:24:36;;;;;;;23.63;11.33;;;3.30;99.90;;;;;;5032591;28;20243;-78
2022/01/26 07:27:03;;;;;;;21.07;11.67;;;3.40;99.90;;;;;;4999951;28;20197;-81
2022/01/26 07:29:29;;;;;;;25.47;12.50;;;3.40;99.90;;;;;;4981539;28;20183;-82
2022/01/26 07:31:55;;;;;;;22.47;10.60;;;3.50;99.90;;;;;;4980693;28;20183;-77
2022/01/26 07:34:23;;;;;;;24.07;11.27;;;3.40;99.90;;;;;;5012553;28;20197;-78
2022/01/26 07:36:52;;;;;;;21.63;11.30;;;3.30;99.90;;;;;;5012208;28;20708;-77
2022/01/26 07:39:29;;;;;;;21.50;10.90;;;3.40;99.90;;;;;;5029332;28;20182;-82
2022/01/26 07:41:55;;;;;;;20.43;10.33;;;3.50;99.90;;;;;;5032387;28;20212;-76
2022/01/26 07:44:21;;;;;;;23.93;11.70;;;3.40;99.90;;;;;;5014228;28;20178;-83
2022/01/26 07:46:47;;;;;;;23.77;10.53;;;3.50;99.90;;;;;;5015568;28;20312;-80
2022/01/26 07:49:13;;;;;;;18.27;10.80;;;3.60;99.90;;;;;;5013485;28;20281;-82
2022/01/26 07:51:38;;;;;;;18.80;10.17;;;3.50;99.90;;;;;;5016342;28;20186;-77
2022/01/26 07:54:04;;;;;;;22.27;11.57;;;3.50;99.90;;;;;;5029534;28;20186;-80
2022/01/26 07:56:30;;;;;;;24.80;11.43;;;3.30;99.90;;;;;;5012349;28;20569;-81
2022/01/26 07:58:58;;;;;;;25.73;12.13;;;3.30;99.90;;;;;;5036594;28;20189;-77
2022/01/26 08:01:23;;;;;;;22.83;11.40;;;3.20;99.90;;;;;;4991214;28;20213;-84
2022/01/26 08:03:50;;;;;;;26.47;11.63;;;3.20;99.90;;;;;;5004393;28;20189;-77
2022/01/26 08:06:18;;;;;;;22.80;10.70;;;3.20;99.90;;;;;;5029087;28;20556;-77
2022/01/26 08:08:44;;;;;;;25.80;12.23;;;3.20;99.90;;;;;;5017019;28;20174;-77
2022/01/26 08:11:10;;;;;;;24.27;12.67;;;3.30;99.90;;;;;;4999964;28;20332;-83
2022/01/26 08:13:36;;;;;;;25.97;11.70;;;3.30;99.90;;;;;;4999296;28;20186;-76
2022/01/26 08:16:03;;;;;;;29.13;12.10;;;3.20;99.90;;;;;;5014875;28;20287;-80
2022/01/26 08:18:28;;;;;;;30.05;14.52;;;3.40;99.90;;;;;;4998408;28;20437;-83
2022/01/26 08:21:01;;;;;;;26.90;12.57;;;3.40;99.90;;;;;;5017323;28;20213;-84
2022/01/26 08:23:26;;;;;;;26.30;12.27;;;3.20;99.90;;;;;;5032230;28;20186;-76
2022/01/26 08:25:52;;;;;;;28.20;12.03;;;2.80;99.90;;;;;;4999680;28;20204;-79
2022/01/26 08:28:27;;;;;;;22.00;11.53;;;3.10;99.90;;;;;;5000444;28;20182;-84
2022/01/26 08:30:53;;;;;;;26.30;12.57;;;3.20;99.90;;;;;;5013569;28;20198;-76
2022/01/26 08:33:19;;;;;;;29.77;13.83;;;3.40;99.90;;;;;;5005537;28;20221;-76
2022/01/26 08:35:46;;;;;;;27.30;12.50;;;3.50;99.90;;;;;;5021336;28;20190;-76
2022/01/26 08:38:12;;;;;;;25.17;12.23;;;3.60;99.90;;;;;;5027912;28;20190;-76
2022/01/26 08:40:38;;;;;;;24.97;12.77;;;3.50;99.90;;;;;;5031835;28;20316;-81
2022/01/26 08:43:05;;;;;;;25.83;12.07;;;3.40;99.90;;;;;;5012870;28;20703;-77
2022/01/26 08:45:32;;;;;;;27.47;11.30;;;3.50;99.90;;;;;;5014038;28;20187;-78
2022/01/26 08:47:58;;;;;;;27.73;12.27;;;3.50;99.90;;;;;;5015438;28;20241;-78
2022/01/26 08:50:23;;;;;;;26.77;12.93;;;3.60;99.90;;;;;;5000497;28;20250;-86
2022/01/26 08:52:50;;;;;;;31.67;12.87;;;3.60;99.90;;;;;;5001897;28;20210;-77
2022/01/26 08:55:16;;;;;;;22.70;10.53;;;3.60;99.90;;;;;;5032498;28;20497;-78
2022/01/26 08:57:41;;;;;;;23.70;12.00;;;3.60;99.90;;;;;;5032515;28;20181;-79
2022/01/26 09:00:09;;;;;;;25.23;11.47;;;3.50;99.90;;;;;;5016721;28;20198;-78
2022/01/26 09:02:36;;;;;;;24.90;11.47;;;3.70;99.90;;;;;;4998112;28;20704;-78
2022/01/26 09:05:04;;;;;;;25.20;12.27;;;3.70;99.90;;;;;;5030378;28;20178;-83
2022/01/26 09:07:31;;;;;;;26.63;13.03;;;3.50;99.90;;;;;;5031629;28;20178;-83
2022/01/26 09:10:00;;;;;;;30.57;13.00;;;3.70;99.90;;;;;;5021039;28;20182;-80
2022/01/26 09:12:27;;;;;;;27.30;12.37;;;3.60;99.90;;;;;;5025229;28;20212;-85
2022/01/26 09:14:54;;;;;;;27.30;12.17;;;3.60;99.90;;;;;;4997142;28;20190;-77
2022/01/26 09:17:21;;;;;;;28.03;12.23;;;3.60;99.90;;;;;;5015159;28;20209;-78
2022/01/26 09:19:48;;;;;;;27.97;12.20;;;3.50;99.90;;;;;;5026189;28;20299;-78
2022/01/26 09:22:16;;;;;;;30.07;13.47;;;3.50;99.90;;;;;;5000144;28;20252;-84
2022/01/26 09:24:44;;;;;;;32.50;14.73;;;3.50;99.90;;;;;;4999453;28;20221;-77
2022/01/26 09:27:14;;;;;;;30.20;13.13;;;3.60;99.90;;;;;;4996986;28;20190;-78
2022/01/26 09:29:42;;;;;;;33.30;13.57;;;3.50;99.90;;;;;;5015474;28;20210;-85
2022/01/26 09:32:08;;;;;;;25.30;11.37;;;3.40;99.90;;;;;;5028095;28;20185;-85
2022/01/26 09:34:35;;;;;;;21.80;11.73;;;3.50;99.90;;;;;;5000045;28;20192;-84
2022/01/26 09:37:03;;;;;;;28.87;13.07;;;3.60;99.90;;;;;;5014764;28;20182;-82
2022/01/26 09:39:29;;;;;;;26.97;12.00;;;3.60;99.90;;;;;;5014853;28;20189;-78
2022/01/26 09:41:56;;;;;;;27.33;12.30;;;3.70;99.90;;;;;;5034721;28;20209;-81
2022/01/26 09:44:22;;;;;;;30.80;13.80;;;3.70;99.90;;;;;;4998850;28;20186;-81
2022/01/26 09:46:50;;;;;;;28.33;12.87;;;3.70;99.90;;;;;;5014076;28;20193;-77
2022/01/26 09:49:17;;;;;;;25.00;11.83;;;3.80;99.90;;;;;;5031457;28;20542;-82
2022/01/26 09:51:47;;;;;;;25.40;13.57;;;3.80;99.90;;;;;;5014273;28;20272;-80
2022/01/26 09:54:16;;;;;;;27.13;13.23;;;3.70;99.90;;;;;;5014649;28;20192;-82
2022/01/26 09:56:46;;;;;;;25.83;11.50;;;3.70;99.90;;;;;;5013952;28;20269;-81
2022/01/26 09:59:14;;;;;;;27.77;12.87;;;3.60;99.90;;;;;;5030874;28;20181;-79
2022/01/26 10:01:45;;;;;;;22.73;11.80;;;3.70;99.90;;;;;;5029080;28;20303;-76
2022/01/26 10:04:26;;;;;;;27.13;11.70;;;3.80;99.90;;;;;;5013119;28;20236;-82
2022/01/26 10:07:45;;;;;;;26.37;12.23;;;3.80;99.90;;;;;;5031349;28;20301;-77
2022/01/26 10:15:54;;;;;;;27.05;15.85;;;4.00;99.90;;;;;;5032155;28;20463;-83
2022/01/26 10:18:21;;;;;;;26.40;12.37;;;3.90;99.90;;;;;;5030548;28;20174;-78
2022/01/26 10:20:51;;;;;;;27.10;11.53;;;4.00;99.90;;;;;;4997030;28;20228;-86
2022/01/26 10:23:22;;;;;;;26.80;11.37;;;4.10;99.90;;;;;;5029848;28;20273;-76
2022/01/26 10:26:03;;;;;;;28.57;12.20;;;4.30;99.90;;;;;;5030722;28;20166;-77
2022/01/26 10:28:44;;;;;;;26.97;12.50;;;4.10;99.90;;;;;;5030039;28;20178;-83
2022/01/26 10:31:22;;;;;;;24.97;10.60;;;4.20;99.90;;;;;;5030080;28;20537;-83
2022/01/26 10:34:06;;;;;;;26.00;12.77;;;4.00;99.90;;;;;;5029697;28;20332;-83
2022/01/26 10:36:50;;;;;;;23.93;11.43;;;3.80;99.90;;;;;;5007866;28;20186;-78
2022/01/26 10:39:32;;;;;;;30.67;14.17;;;3.80;99.90;;;;;;5031792;28;20212;-79
2022/01/26 10:42:04;;;;;;;24.40;11.20;;;3.90;99.90;;;;;;5014424;28;20202;-82
2022/01/26 10:44:42;;;;;;;21.60;10.90;;;3.90;99.90;;;;;;4996548;28;20238;-78
2022/01/26 10:47:09;;;;;;;24.40;12.10;;;3.90;99.90;;;;;;5027802;28;20174;-78
2022/01/26 10:52:31;;;;;;;24.97;12.10;;;4.00;99.90;;;;;;5028520;28;20182;-78
2022/01/26 10:54:58;;;;;;;25.57;11.57;;;4.00;99.90;;;;;;5012911;28;20182;-82
2022/01/26 10:57:25;;;;;;;22.53;11.30;;;4.00;99.90;;;;;;5013875;28;20186;-83
2022/01/26 10:59:53;;;;;;;24.23;11.13;;;4.00;99.90;;;;;;5033168;28;20193;-82
2022/01/26 11:02:27;;;;;;;22.90;11.27;;;3.90;99.90;;;;;;4997439;28;20255;-79
2022/01/26 11:04:55;;;;;;;22.00;10.53;;;4.00;99.90;;;;;;5043680;28;20248;-82
2022/01/26 11:07:30;;;;;;;21.80;10.97;;;3.70;99.90;;;;;;5023645;28;20182;-82
2022/01/26 11:10:04;;;;;;;21.53;11.10;;;4.00;99.90;;;;;;5001059;28;20186;-81
2022/01/26 11:12:32;;;;;;;27.97;12.13;;;4.20;99.90;;;;;;5027242;28;20181;-81
2022/01/26 11:15:22;;;;;;;24.83;11.10;;;4.10;99.90;;;;;;5029230;28;20217;-82
2022/01/26 11:17:48;;;;;;;23.70;10.77;;;4.10;99.90;;;;;;5035905;28;20185;-83
2022/01/26 11:20:32;;;;;;;25.37;11.93;;;3.90;99.90;;;;;;5025679;28;20179;-82
2022/01/26 11:23:02;;;;;;;24.97;12.50;;;3.80;99.90;;;;;;5028150;28;20186;-80
2022/01/26 11:25:40;;;;;;;29.30;12.60;;;3.90;99.90;;;;;;5013566;28;20548;-82
2022/01/26 11:28:23;;;;;;;25.87;10.50;;;3.90;99.90;;;;;;5013784;28;20186;-78
2022/01/26 11:30:51;;;;;;;24.93;11.50;;;4.00;99.90;;;;;;5028031;28;20202;-78
2022/01/26 11:33:25;;;;;;;25.63;12.57;;;4.10;99.90;;;;;;5012362;28;20166;-81
2022/01/26 11:35:53;;;;;;;29.67;12.60;;;4.00;99.90;;;;;;5010732;28;20190;-80
2022/01/26 11:46:37;;;;;;;31.43;13.73;;;3.70;99.90;;;;;;5025159;28;20182;-78
2022/01/26 11:49:12;;;;;;;25.83;11.83;;;3.80;99.90;;;;;;5016487;28;20225;-83
2022/01/26 11:51:42;;;;;;;30.07;12.60;;;3.80;99.90;;;;;;5032547;28;20193;-81
2022/01/26 11:54:15;;;;;;;26.07;11.97;;;3.90;99.90;;;;;;5033000;28;20212;-79
2022/01/26 11:56:54;;;;;;;29.00;11.40;;;3.80;99.90;;;;;;5012892;28;20613;-83
2022/01/26 11:59:21;;;;;;;25.17;11.70;;;3.70;99.90;;;;;;5030140;28;20267;-84
2022/01/26 12:01:58;;;;;;;26.60;12.33;;;3.60;99.90;;;;;;5017413;28;20213;-78
2022/01/26 12:04:25;;;;;;;27.13;12.33;;;3.50;99.90;;;;;;5028794;28;20617;-84
2022/01/26 12:06:59;;;;;;;26.43;11.87;;;3.60;99.90;;;;;;5015397;28;20186;-81
2022/01/26 12:09:25;;;;;;;29.20;12.73;;;3.60;99.90;;;;;;5012863;28;20186;-79
2022/01/26 12:11:53;;;;;;;25.50;12.07;;;3.70;99.90;;;;;;4998915;28;20194;-83
2022/01/26 12:14:20;;;;;;;29.50;12.80;;;3.60;99.90;;;;;;5014455;28;20191;-79
2022/01/26 12:16:52;;;;;;;27.60;11.07;;;3.60;99.90;;;;;;5000592;28;20210;-85
2022/01/26 12:38:29;;;;;;;20.47;10.63;;;5.60;99.90;;;;;;5030643;28;20177;-85
2022/01/26 12:43:43;;;;;;;25.27;11.13;;;4.80;99.90;;;;;;5009545;28;20190;-78
2022/01/26 12:46:17;;;;;;;23.03;11.33;;;4.60;99.90;;;;;;4998048;28;20182;-85
2022/01/26 12:48:52;;;;;;;30.87;12.23;;;4.40;99.90;;;;;;4997140;28;20187;-87
2022/01/26 12:51:19;;;;;;;25.03;11.17;;;4.20;99.90;;;;;;5009748;28;20205;-84
2022/01/26 12:53:55;;;;;;;22.50;10.03;;;4.10;99.90;;;;;;5032522;28;20196;-79
2022/01/26 12:56:30;;;;;;;25.37;11.60;;;4.10;99.90;;;;;;5012744;28;20220;-87
2022/01/26 12:59:06;;;;;;;27.60;12.00;;;4.00;99.90;;;;;;5013456;28;20206;-84
2022/01/26 13:01:32;;;;;;;21.60;10.77;;;4.00;99.90;;;;;;4996460;28;20283;-79
2022/01/26 13:04:03;;;;;;;26.43;11.37;;;3.90;99.90;;;;;;5028186;28;20181;-87
2022/01/26 13:06:36;;;;;;;25.03;11.13;;;3.90;99.90;;;;;;5006109;28;20189;-86
2022/01/26 13:09:27;;;;;;;21.43;9.67;;;4.00;99.90;;;;;;5003460;28;20187;-78
2022/01/26 13:11:59;;;;;;;22.30;9.93;;;4.10;99.90;;;;;;5005054;28;20236;-79
2022/01/26 13:14:48;;;;;;;22.93;11.70;;;4.00;99.90;;;;;;5011026;28;20347;-78
2022/01/26 13:17:37;;;;;;;20.33;10.47;;;4.00;99.90;;;;;;5002089;28;20224;-85
2022/01/26 13:31:17;;;;;;;21.13;9.90;;;3.90;99.90;;;;;;5017395;28;20649;-77
2022/01/26 13:42:53;;;;;;;22.07;10.70;;;3.80;99.90;;;;;;5013753;28;20255;-80
2022/01/26 13:46:11;;;;;;;23.87;11.20;;;3.70;99.90;;;;;;5008124;28;20190;-77
2022/01/26 13:48:17;;;;;;;19.60;9.87;;;3.60;99.90;;;;;;5019855;28;20195;-78
2022/01/26 13:53:13;;;;;;;21.27;10.80;;;3.50;99.90;;;;;;5027809;28;20189;-77
2022/01/26 14:00:42;;;;;;;22.33;10.50;;;3.60;99.90;;;;;;5027702;28;20558;-77
2022/01/26 14:03:10;;;;;;;21.10;9.57;;;3.60;99.90;;;;;;5018677;28;20182;-78
2022/01/26 14:05:54;;;;;;;23.57;9.93;;;3.70;99.90;;;;;;5006842;28;20656;-82
2022/01/26 14:08:21;;;;;;;24.53;10.47;;;3.60;99.90;;;;;;5017876;28;20261;-83
2022/01/26 14:10:48;;;;;;;22.60;9.50;;;3.70;99.90;;;;;;5033535;28;20564;-83
2022/01/26 14:13:19;;;;;;;20.87;10.17;;;3.80;99.90;;;;;;5032359;28;20162;-78
2022/01/26 14:15:48;;;;;;;19.03;9.87;;;3.60;99.90;;;;;;4995541;28;20199;-84
2022/01/26 14:20:49;;;;;;;16.97;8.90;;;3.60;99.90;;;;;;5032031;28;20193;-84
2022/01/26 14:25:44;;;;;;;17.53;9.03;;;3.50;99.90;;;;;;5016551;28;20300;-83
2022/01/26 14:28:12;;;;;;;20.97;9.77;;;3.50;99.90;;;;;;5014509;28;20174;-83
2022/01/26 14:30:58;;;;;;;19.97;8.37;;;3.40;99.90;;;;;;5017633;28;20251;-86
2022/01/26 15:35:25;;;;;;;17.23;8.10;;;3.30;99.90;;;;;;5026455;28;20213;-81
2022/01/26 15:49:25;;;;;;;18.60;8.10;;;3.50;99.90;;;;;;5038770;28;20169;-78
2022/01/26 16:04:56;;;;;;;17.80;8.53;;;3.30;99.90;;;;;;5004540;28;20412;-83
2022/01/26 16:18:51;;;;;;;14.00;7.50;;;3.40;99.90;;;;;;5023321;28;21159;-82
2022/01/26 18:17:05;;;;;;;20.70;10.23;;;3.40;99.90;;;;;;5008089;28;20232;-82
2022/01/26 18:49:35;;;;;;;20.10;9.40;;;3.40;99.90;;;;;;5020777;28;20186;-80
2022/01/26 18:52:03;;;;;;;18.87;8.97;;;3.50;99.90;;;;;;4997163;28;20182;-76
2022/01/26 18:54:31;;;;;;;18.07;9.87;;;3.50;99.90;;;;;;5010953;28;20201;-80
2022/01/26 18:57:07;;;;;;;21.33;10.03;;;3.40;99.90;;;;;;5027715;28;20751;-83
2022/01/26 18:59:34;;;;;;;20.93;9.67;;;3.50;99.90;;;;;;5007688;28;20186;-76
2022/01/26 19:02:03;;;;;;;21.07;9.67;;;3.60;99.90;;;;;;5009712;28;20229;-75
2022/01/26 19:04:40;;;;;;;20.43;10.13;;;3.50;99.90;;;;;;5020843;28;20224;-74
2022/01/26 19:07:06;;;;;;;22.33;9.60;;;3.40;99.90;;;;;;5023723;28;20188;-82
2022/01/26 19:09:44;;;;;;;22.07;9.80;;;3.30;99.90;;;;;;5030803;28;20205;-77
2022/01/26 19:12:14;;;;;;;23.30;9.57;;;3.20;99.90;;;;;;5003796;28;20190;-75
2022/01/26 19:14:45;;;;;;;23.20;9.73;;;3.20;99.90;;;;;;4996457;28;20170;-83
2022/01/26 19:17:17;;;;;;;19.20;9.33;;;3.20;99.90;;;;;;4996299;28;20213;-83
2022/01/26 19:27:28;;;;;;;25.10;10.97;;;3.20;99.90;;;;;;5034318;28;20175;-82
2022/01/26 19:33:00;;;;;;;24.10;11.60;;;3.40;99.90;;;;;;5027731;28;20237;-78
2022/01/26 19:43:57;;;;;;;26.60;10.50;;;3.50;99.90;;;;;;5013599;28;20179;-77
2022/01/26 19:46:31;;;;;;;24.20;10.10;;;3.60;99.90;;;;;;5011009;28;20189;-76
2022/01/26 19:54:48;;;;;;;21.37;9.10;;;3.50;99.90;;;;;;5010992;28;20189;-76
2022/01/26 19:57:15;;;;;;;22.27;10.77;;;3.60;99.90;;;;;;5050310;28;20173;-76
2022/01/26 19:59:42;;;;;;;20.47;9.83;;;3.60;99.90;;;;;;5035784;28;20196;-81
2022/01/26 20:02:09;;;;;;;21.07;10.13;;;3.60;99.90;;;;;;5023978;28;20301;-83
2022/01/26 20:04:35;;;;;;;22.63;10.37;;;3.50;99.90;;;;;;5002858;28;20621;-82
2022/01/26 20:07:08;;;;;;;20.77;9.53;;;3.50;99.90;;;;;;5031647;28;20769;-81
2022/01/26 20:09:44;;;;;;;20.37;9.50;;;3.40;99.90;;;;;;5016293;28;20193;-75
2022/01/26 20:12:23;;;;;;;21.90;9.83;;;3.50;99.90;;;;;;5025757;28;20216;-76